Tofino Airport
CYAZ : now visible

Airfield :











YOU CAN JOIN US ON...

 
LOGIN :

Register | Disclaimer

   EN    FR    IT 

 









Legend :    VFR   Marginal VFR   IFR   Intensive IFR   Very Intensive IFR
Visi :
Ceiling :
>= 8 km
>= 3000ft
5 to 8 km
1000 to 3000 ft
1500m to 5 km
500 to 1000 ft
800 to 1500m
200 to 500 ft
< 800m
< 200 ft
Symbols :   Thunderstorms  Fog  Heavy snow  Heavy precipitations  Wind > 20 kt






- Airport Elevation : 80 ft
- IATA code : YAZ


CYAZ - Tofino

CURRENT METAR :
  • 172300Z 30012G19KT 15SM BKN052 17/11 A3021 RMK SC7 SLP230 DENSITY ALT 100FT

EXPIRED METARs :
  • 172200Z 29012G17KT 15SM BKN056 17/12 A3021 RMK SC7 SLP233 DENSITY ALT 100FT
  • 172100Z 27012G18KT 15SM BKN057 17/11 A3022 RMK SC7 SLP235
  • 172029Z 30013KT 250V310 15SM BKN059 17/08 A3022 RMK SC7 WSHFT 2016 SLP236

TAF TAF CYAZ
Valid from the 17 at 19:00 until the 18 at 01:00 UTC


171838Z 1719/1801 27008KT P6SM BKN240 RMK NXT FCST WILL BE ISSUED AT 181445Z
CZVR FIR / North America



MET'MAP, your aeronautical weather chart ! - Copyright ORBIFLY December 2007 - Disclaimer

ORBIFLY MET'MAP TEAM :

Programming & Development : Alexandra Zaïnal
Concept & original design : Baudouin d'Aumeries
Assistance for programming : Marc-Olivier Méhu
Technical & hardware support : Manuel Goepfert

Contact : metmap@orbifly.com




SOURCES & CREDITS :

   NOAA       Earth
Advisory